createdAt,value
2022-11-21T00:01:19.603Z,11.52
2022-11-21T00:03:47.766Z,10.13
2022-11-21T00:06:16.194Z,10.07
2022-11-21T00:08:44.550Z,9.57
2022-11-21T00:11:12.654Z,10.70
2022-11-21T00:13:41.202Z,9.75
2022-11-21T00:16:12.368Z,10.68
2022-11-21T00:18:41.634Z,9.48
2022-11-21T00:21:12.900Z,11.00
2022-11-21T00:23:41.055Z,10.32
2022-11-21T00:26:10.778Z,10.52
2022-11-21T00:28:38.761Z,11.43
2022-11-21T00:31:07.738Z,9.90
2022-11-21T00:33:37.306Z,9.13
2022-11-21T00:36:09.090Z,10.93
2022-11-21T00:38:37.564Z,11.13
2022-11-21T00:41:05.625Z,10.68
2022-11-21T00:43:35.793Z,10.85
2022-11-21T00:46:04.292Z,9.57
2022-11-21T00:48:33.371Z,10.35
2022-11-21T00:51:02.842Z,10.27
2022-11-21T00:53:31.129Z,9.88
2022-11-21T00:55:59.108Z,11.07
2022-11-21T00:58:27.811Z,9.85
2022-11-21T01:01:04.200Z,9.65
2022-11-21T01:03:33.840Z,10.02
2022-11-21T01:06:04.800Z,10.02
2022-11-21T01:08:32.880Z,9.65
2022-11-21T01:11:03.796Z,9.48
2022-11-21T01:13:31.714Z,9.85
2022-11-21T01:16:04.173Z,9.40
2022-11-21T01:18:31.996Z,10.48
2022-11-21T01:21:01.641Z,9.45
2022-11-21T01:23:31.128Z,8.95
2022-11-21T01:26:02.768Z,9.45
2022-11-21T01:28:30.877Z,8.50
2022-11-21T01:31:04.907Z,8.80
2022-11-21T01:33:32.882Z,8.93
2022-11-21T01:36:08.032Z,8.02
2022-11-21T01:38:37.312Z,7.85
2022-11-21T01:41:05.748Z,7.65
2022-11-21T01:43:33.943Z,7.07
2022-11-21T01:46:07.793Z,7.53
2022-11-21T01:48:40.484Z,6.80
2022-11-21T01:51:14.185Z,6.65
2022-11-21T01:53:47.563Z,7.55
2022-11-21T01:56:16.754Z,7.15
2022-11-21T01:58:46.328Z,7.13
2022-11-21T02:01:14.365Z,7.05
2022-11-21T02:03:45.487Z,6.43
2022-11-21T02:06:14.281Z,7.18
2022-11-21T02:08:45.715Z,7.20
2022-11-21T02:11:22.469Z,5.82
2022-11-21T02:13:50.445Z,6.20
2022-11-21T02:16:18.314Z,6.60
2022-11-21T02:18:46.150Z,6.30
2022-11-21T02:21:22.005Z,6.50
2022-11-21T02:24:00.487Z,6.55
2022-11-21T02:26:30.709Z,6.30
2022-11-21T02:28:59.137Z,6.10
2022-11-21T02:31:26.968Z,6.13
2022-11-21T02:33:54.821Z,5.50
2022-11-21T02:36:37.109Z,5.82
2022-11-21T02:39:06.819Z,5.63
2022-11-21T02:41:39.107Z,5.57
2022-11-21T02:44:10.682Z,5.45
2022-11-21T02:46:48.488Z,5.77
2022-11-21T02:49:20.933Z,6.20
2022-11-21T02:51:49.648Z,5.88
2022-11-21T02:54:17.510Z,6.10
2022-11-21T02:56:46.671Z,6.65
2022-11-21T02:59:14.555Z,5.85
2022-11-21T03:01:42.428Z,5.65
2022-11-21T03:04:10.377Z,5.75
2022-11-21T03:06:38.150Z,5.55
2022-11-21T03:09:05.945Z,5.50
2022-11-21T03:11:34.178Z,6.03
2022-11-21T03:14:03.391Z,5.15
2022-11-21T03:16:31.258Z,6.65
2022-11-21T03:18:59.604Z,5.88
2022-11-21T03:21:27.495Z,4.72
2022-11-21T03:23:55.339Z,5.05
2022-11-21T03:26:23.324Z,5.68
2022-11-21T03:28:51.118Z,4.93
2022-11-21T03:31:20.371Z,4.38
2022-11-21T03:33:48.207Z,4.93
2022-11-21T03:36:16.351Z,4.63
2022-11-21T03:38:44.247Z,5.50
2022-11-21T03:41:25.973Z,5.47
2022-11-21T03:43:53.926Z,5.05
2022-11-21T03:46:26.516Z,5.72
2022-11-21T03:49:19.029Z,5.15
2022-11-21T03:51:53.501Z,4.78
2022-11-21T03:54:21.325Z,5.68
2022-11-21T03:56:49.179Z,5.47
2022-11-21T04:02:10.854Z,4.80
2022-11-21T04:04:38.680Z,5.93
2022-11-21T04:07:06.565Z,5.28
2022-11-21T04:09:34.584Z,5.68
2022-11-21T04:12:07.293Z,5.25
2022-11-21T04:15:03.444Z,5.82
2022-11-21T04:17:32.739Z,4.78
2022-11-21T04:20:00.548Z,5.47
2022-11-21T04:22:28.472Z,5.65
2022-11-21T04:24:56.376Z,5.22
2022-11-21T04:27:24.172Z,5.35
2022-11-21T04:29:52.051Z,5.38
2022-11-21T04:32:19.911Z,5.22
2022-11-21T04:34:49.168Z,5.60
2022-11-21T04:37:17.076Z,6.05
2022-11-21T04:39:44.999Z,5.60
2022-11-21T04:42:12.940Z,5.80
2022-11-21T04:44:40.839Z,4.75
2022-11-21T04:47:08.727Z,5.28
2022-11-21T04:49:36.553Z,5.45
2022-11-21T04:52:06.314Z,5.05
2022-11-21T04:54:34.230Z,5.47
2022-11-21T04:57:02.569Z,6.15
2022-11-21T04:59:30.748Z,6.05
2022-11-21T05:01:58.691Z,5.70
2022-11-21T05:04:26.877Z,5.57
2022-11-21T05:06:54.915Z,5.80
2022-11-21T05:09:24.156Z,5.68
2022-11-21T05:12:09.459Z,5.28
2022-11-21T05:14:37.336Z,6.05
2022-11-21T05:17:05.224Z,4.90
2022-11-21T05:19:58.761Z,5.70
2022-11-21T05:22:26.754Z,6.20
2022-11-21T05:24:56.058Z,5.25
2022-11-21T05:27:24.134Z,6.03
2022-11-21T05:29:52.055Z,5.63
2022-11-21T05:32:19.838Z,6.45
2022-11-21T05:34:47.867Z,6.38
2022-11-21T05:37:15.728Z,6.10
2022-11-21T05:39:43.608Z,5.70
2022-11-21T05:42:12.932Z,5.50
2022-11-21T05:45:06.071Z,6.07
2022-11-21T05:50:26.509Z,6.50
2022-11-21T05:52:54.364Z,6.70
2022-11-21T05:55:22.273Z,6.30
2022-11-21T05:57:51.435Z,5.07
2022-11-21T06:00:21.534Z,5.82
2022-11-21T06:03:06.845Z,5.75
2022-11-21T06:05:34.735Z,6.75
2022-11-21T06:08:02.626Z,5.43
2022-11-21T06:10:30.470Z,6.97
2022-11-21T06:13:02.023Z,7.18
2022-11-21T06:15:30.773Z,6.03
2022-11-21T06:18:01.272Z,6.93
2022-11-21T06:20:29.156Z,6.53
2022-11-21T06:22:57.011Z,5.43
2022-11-21T06:25:24.851Z,6.22
2022-11-21T06:27:52.735Z,6.20
2022-11-21T06:30:22.443Z,6.07
2022-11-21T06:33:15.496Z,6.20
2022-11-21T06:35:43.385Z,6.60
2022-11-21T06:38:13.412Z,6.22
2022-11-21T06:40:41.391Z,6.20
2022-11-21T06:43:09.555Z,6.50
2022-11-21T06:45:38.746Z,5.93
2022-11-21T06:48:07.072Z,5.22
2022-11-21T06:50:35.003Z,6.40
2022-11-21T06:53:03.219Z,5.72
2022-11-21T06:55:32.062Z,6.38
2022-11-21T06:58:00.682Z,6.10
2022-11-21T07:00:29.106Z,5.82
2022-11-21T07:03:03.351Z,6.70
2022-11-21T07:05:31.973Z,6.13
2022-11-21T07:08:00.413Z,7.15
2022-11-21T07:10:28.816Z,5.82
2022-11-21T07:16:15.255Z,6.10
2022-11-21T07:18:45.599Z,5.03
2022-11-21T07:21:13.538Z,6.50
2022-11-21T07:23:41.540Z,5.75
2022-11-21T07:26:11.723Z,6.05
2022-11-21T07:28:39.743Z,6.50
2022-11-21T07:31:13.238Z,7.00
2022-11-21T08:26:28.766Z,6.57
2022-11-21T08:28:59.885Z,5.75
2022-11-21T08:38:27.583Z,6.53
2022-11-21T08:44:56.834Z,6.20
2022-11-21T08:47:30.424Z,6.03
2022-11-21T08:49:58.367Z,6.47
2022-11-21T08:52:26.214Z,7.00
2022-11-21T08:54:54.247Z,7.00
2022-11-21T08:57:22.035Z,6.47
2022-11-21T08:59:49.928Z,6.57
2022-11-21T09:05:11.768Z,6.45
2022-11-21T09:07:41.270Z,6.43
2022-11-21T09:10:10.276Z,6.05
2022-11-21T09:12:38.373Z,6.32
2022-11-21T09:15:24.865Z,5.40
2022-11-21T09:18:13.826Z,9.07
2022-11-21T09:20:44.566Z,7.03
2022-11-21T09:23:13.711Z,10.27
2022-11-21T09:25:42.352Z,6.97
2022-11-21T09:28:12.452Z,6.70
2022-11-21T09:30:41.278Z,6.10
2022-11-21T09:33:13.245Z,6.45
2022-11-21T09:35:41.306Z,5.70
2022-11-21T09:38:09.735Z,5.75
2022-11-21T09:40:38.210Z,6.60
2022-11-21T09:43:27.579Z,6.28
2022-11-21T09:46:01.465Z,5.65
2022-11-21T09:48:35.183Z,6.43
2022-11-21T09:51:08.213Z,6.72
2022-11-21T09:53:40.719Z,6.65
2022-11-21T09:56:13.497Z,5.80
2022-11-21T10:01:13.220Z,5.85
2022-11-21T10:03:45.291Z,6.55
2022-11-21T10:06:20.362Z,6.93
2022-11-21T10:08:56.993Z,5.30
2022-11-21T10:12:01.675Z,6.38
2022-11-21T10:14:48.111Z,5.63
2022-11-21T10:17:26.032Z,6.25
2022-11-21T10:20:13.834Z,6.82
2022-11-21T10:23:01.289Z,6.82
2022-11-21T10:25:34.390Z,6.20
2022-11-21T10:28:08.552Z,7.57
2022-11-21T10:30:41.397Z,7.50
2022-11-21T10:35:46.870Z,7.10
2022-11-21T10:38:22.266Z,6.75
2022-11-21T10:40:54.419Z,7.60
2022-11-21T10:43:50.400Z,7.65
2022-11-21T10:46:18.669Z,7.88
2022-11-21T10:48:58.270Z,8.70
2022-11-21T10:51:44.837Z,12.80
2022-11-21T10:54:32.146Z,9.48
2022-11-21T10:57:06.548Z,9.30
2022-11-21T10:59:34.662Z,7.68
2022-11-21T11:02:22.061Z,7.63
2022-11-21T11:04:52.433Z,7.85
2022-11-21T11:07:25.266Z,7.60
2022-11-21T11:12:25.455Z,8.23
2022-11-21T11:14:55.897Z,8.90
2022-11-21T11:17:32.433Z,8.15
2022-11-21T11:20:02.339Z,7.95
2022-11-21T11:22:32.207Z,8.40
2022-11-21T11:25:00.873Z,9.25
2022-11-21T11:27:30.191Z,8.35
2022-11-21T11:30:00.677Z,8.60
2022-11-21T11:32:28.612Z,9.07
2022-11-21T11:35:01.117Z,9.05
2022-11-21T11:37:40.306Z,8.48
2022-11-21T11:40:19.942Z,7.85
2022-11-21T11:43:20.722Z,7.97
2022-11-21T11:46:30.009Z,8.13
2022-11-21T11:49:19.787Z,8.18
2022-11-21T11:51:54.221Z,8.30
2022-11-21T11:54:28.340Z,8.82
2022-11-21T11:56:58.484Z,8.52
2022-11-21T11:59:32.456Z,7.03
2022-11-21T12:02:08.908Z,8.65
2022-11-21T12:04:48.854Z,8.07
2022-11-21T12:10:17.493Z,7.60
2022-11-21T12:12:51.073Z,6.82
2022-11-21T12:15:41.112Z,6.80
2022-11-21T12:18:16.294Z,8.23
2022-11-21T12:20:54.038Z,8.05
2022-11-21T12:23:24.025Z,8.60
2022-11-21T12:26:06.055Z,7.80
2022-11-21T12:28:47.199Z,8.27
2022-11-21T12:31:21.140Z,7.22
2022-11-21T12:33:59.857Z,7.93
2022-11-21T12:36:39.993Z,7.68
2022-11-21T12:39:40.096Z,7.28
2022-11-21T12:42:41.191Z,7.30
2022-11-21T12:45:34.567Z,6.38
2022-11-21T12:48:42.079Z,6.65
2022-11-21T12:51:53.649Z,6.90
2022-11-21T12:54:52.029Z,6.38
2022-11-21T12:57:25.686Z,6.32
2022-11-21T13:00:02.530Z,7.30
2022-11-21T13:02:50.558Z,7.03
2022-11-21T13:05:25.241Z,6.32
2022-11-21T13:07:59.747Z,7.28
2022-11-21T13:10:29.429Z,6.95
2022-11-21T13:13:04.793Z,6.15
2022-11-21T13:15:41.551Z,7.47
2022-11-21T13:18:20.218Z,7.13
2022-11-21T13:20:49.630Z,9.15
2022-11-21T13:23:37.822Z,9.82
2022-11-21T13:26:44.972Z,8.18
2022-11-21T13:29:15.060Z,8.43
2022-11-21T13:31:43.725Z,8.80
2022-11-21T13:34:41.307Z,8.23
2022-11-21T13:37:09.219Z,8.45
2022-11-21T13:39:39.138Z,7.90
2022-11-21T13:42:29.096Z,8.02
2022-11-21T13:44:58.894Z,8.18
2022-11-21T13:48:01.369Z,8.80
2022-11-21T13:50:53.439Z,9.93
2022-11-21T13:53:42.961Z,11.38
2022-11-21T13:56:25.881Z,8.77
2022-11-21T13:59:07.116Z,9.60
2022-11-21T14:02:06.497Z,8.55
2022-11-21T14:04:56.230Z,6.80
2022-11-21T14:07:27.594Z,7.88
2022-11-21T14:09:57.623Z,10.23
2022-11-21T14:12:34.421Z,11.88
2022-11-21T14:15:22.809Z,8.18
2022-11-21T14:17:56.507Z,8.63
2022-11-21T14:20:26.555Z,7.68
2022-11-21T14:22:58.390Z,8.00
2022-11-21T14:25:33.984Z,8.05
2022-11-21T14:28:04.822Z,7.80
2022-11-21T14:30:36.378Z,8.80
2022-11-21T14:33:26.399Z,8.38
2022-11-21T14:35:57.060Z,8.63
2022-11-21T14:38:25.580Z,8.02
2022-11-21T14:41:17.329Z,7.90
2022-11-21T14:43:45.308Z,8.52
2022-11-21T14:46:16.415Z,8.95
2022-11-21T14:48:47.132Z,7.50
2022-11-21T14:51:19.028Z,8.32
2022-11-21T14:53:48.744Z,7.60
2022-11-21T14:56:22.407Z,7.78
2022-11-21T14:58:51.769Z,8.02
2022-11-21T15:01:22.786Z,8.70
2022-11-21T15:04:01.451Z,8.82
2022-11-21T15:06:31.251Z,7.20
2022-11-21T15:11:52.812Z,7.80
2022-11-21T15:14:27.426Z,7.93
2022-11-21T15:16:57.749Z,7.93
2022-11-21T15:19:29.385Z,8.27
2022-11-21T15:21:59.453Z,8.07
2022-11-21T15:24:40.030Z,8.18
2022-11-21T15:27:33.239Z,11.05
2022-11-21T15:30:27.516Z,11.32
2022-11-21T15:33:07.560Z,11.98
2022-11-21T15:36:12.736Z,11.13
2022-11-21T15:38:47.177Z,11.27
2022-11-21T15:41:30.516Z,11.18
2022-11-21T15:44:20.187Z,10.35
2022-11-21T15:46:52.779Z,11.32
2022-11-21T15:52:13.394Z,11.10
2022-11-21T15:54:41.599Z,12.20
2022-11-21T15:57:09.967Z,10.95
2022-11-21T15:59:37.831Z,12.48
2022-11-21T16:02:05.679Z,10.52
2022-11-21T16:04:33.583Z,10.23
2022-11-21T16:07:01.543Z,10.93
2022-11-21T16:09:31.048Z,10.57
2022-11-21T16:11:59.100Z,11.07
2022-11-21T16:14:27.038Z,10.73
2022-11-21T16:16:55.000Z,11.30
2022-11-21T16:19:22.856Z,10.45
2022-11-21T16:21:51.375Z,10.32
2022-11-21T16:24:19.254Z,13.55
2022-11-21T16:26:49.437Z,14.18
2022-11-21T16:29:17.329Z,21.33
2022-11-21T16:31:45.168Z,17.38
2022-11-21T16:34:13.104Z,12.68
2022-11-21T16:36:40.969Z,13.00
2022-11-21T16:39:13.532Z,11.77
2022-11-21T16:41:46.111Z,12.68
2022-11-21T16:44:16.842Z,11.93
2022-11-21T16:46:48.012Z,12.02
2022-11-21T16:49:16.357Z,12.98
2022-11-21T16:51:44.528Z,12.13
2022-11-21T16:54:12.485Z,11.50
2022-11-21T16:56:40.389Z,11.63
2022-11-21T16:59:08.241Z,11.75
2022-11-21T17:01:37.527Z,12.38
2022-11-21T17:04:05.500Z,12.73
2022-11-21T17:06:33.507Z,12.30
2022-11-21T17:09:02.217Z,11.70
2022-11-21T17:11:32.061Z,11.25
2022-11-21T17:14:02.009Z,11.98
2022-11-21T17:16:29.916Z,12.85
2022-11-21T17:19:00.850Z,12.43
2022-11-21T17:21:30.183Z,12.18
2022-11-21T17:23:58.713Z,15.88
2022-11-21T17:26:28.143Z,13.82
2022-11-21T17:28:58.028Z,12.18
2022-11-21T17:31:26.572Z,11.05
2022-11-21T17:33:56.584Z,11.98
2022-11-21T17:36:27.935Z,10.95
2022-11-21T17:38:56.018Z,11.63
2022-11-21T17:41:25.490Z,10.70
2022-11-21T17:43:55.940Z,13.20
2022-11-21T17:46:25.326Z,13.50
2022-11-21T17:48:58.008Z,13.57
2022-11-21T17:51:29.915Z,11.68
2022-11-21T17:53:58.869Z,13.32
2022-11-21T17:56:29.212Z,11.55
2022-11-21T17:58:57.763Z,11.55
2022-11-21T18:01:25.831Z,12.48
2022-11-21T18:03:56.920Z,12.27
2022-11-21T18:06:25.740Z,10.52
2022-11-21T18:08:57.213Z,14.88
2022-11-21T18:11:28.087Z,14.48
2022-11-21T18:13:56.014Z,15.20
2022-11-21T18:16:25.809Z,13.45
2022-11-21T18:18:53.866Z,13.55
2022-11-21T18:21:23.492Z,12.38
2022-11-21T18:23:53.324Z,13.60
2022-11-21T18:26:24.688Z,12.82
2022-11-21T18:29:13.539Z,15.23
2022-11-21T18:31:44.092Z,14.63
2022-11-21T18:34:12.475Z,13.50
2022-11-21T18:36:40.616Z,14.02
2022-11-21T18:39:14.038Z,14.50
2022-11-21T18:41:44.894Z,15.73
2022-11-21T18:44:20.126Z,15.52
2022-11-21T18:46:49.980Z,14.13
2022-11-21T18:49:18.437Z,12.20
2022-11-21T18:51:46.442Z,13.80
2022-11-21T18:54:14.299Z,13.05
2022-11-21T18:56:42.154Z,11.55
2022-11-21T18:59:11.383Z,12.15
2022-11-21T19:01:40.315Z,13.90
2022-11-21T19:04:09.343Z,15.80
2022-11-21T19:06:37.176Z,12.52
2022-11-21T19:09:05.670Z,11.13
2022-11-21T19:11:33.544Z,12.13
2022-11-21T19:14:01.495Z,12.07
2022-11-21T19:16:34.367Z,11.60
2022-11-21T19:21:50.694Z,11.50
2022-11-21T19:24:19.368Z,10.70
2022-11-21T19:26:50.542Z,11.93
2022-11-21T19:29:18.708Z,10.73
2022-11-21T19:31:48.023Z,10.50
2022-11-21T19:34:16.913Z,9.80
2022-11-21T19:36:45.806Z,10.52
2022-11-21T19:39:13.887Z,10.45
2022-11-21T19:41:41.929Z,10.68
2022-11-21T19:44:11.459Z,12.50
2022-11-21T19:46:40.367Z,12.23
2022-11-21T19:49:12.021Z,11.00
2022-11-21T19:51:41.859Z,13.63
2022-11-21T19:54:12.014Z,22.77
2022-11-21T19:56:40.370Z,13.23
2022-11-21T19:59:08.967Z,11.18
2022-11-21T20:01:36.944Z,10.90
2022-11-21T20:04:06.585Z,11.20
2022-11-21T20:06:37.567Z,10.40
2022-11-21T20:09:08.735Z,12.40
2022-11-21T20:11:37.711Z,12.98
2022-11-21T20:14:06.048Z,11.40
2022-11-21T20:16:36.138Z,9.93
2022-11-21T20:19:07.018Z,9.90
2022-11-21T20:21:36.699Z,9.88
2022-11-21T20:24:05.311Z,9.77
2022-11-21T20:26:34.129Z,9.18
2022-11-21T20:29:02.462Z,10.15
2022-11-21T20:31:32.093Z,9.50
2022-11-21T20:34:01.209Z,10.15
2022-11-21T20:36:31.640Z,9.57
2022-11-21T20:39:02.613Z,9.30
2022-11-21T20:41:34.343Z,10.25
2022-11-21T20:46:53.233Z,9.77
2022-11-21T20:49:21.119Z,10.02
2022-11-21T20:54:38.935Z,9.65
2022-11-21T20:57:13.136Z,8.98
2022-11-21T20:59:42.671Z,8.80
2022-11-21T21:02:13.829Z,9.90
2022-11-21T21:04:42.245Z,9.40
2022-11-21T21:07:10.504Z,8.70
2022-11-21T21:09:40.438Z,9.23
2022-11-21T21:12:08.633Z,9.60
2022-11-21T21:14:36.607Z,10.00
2022-11-21T21:17:04.691Z,10.23
2022-11-21T21:19:32.782Z,8.80
2022-11-21T21:22:00.884Z,9.77
2022-11-21T21:24:28.863Z,9.52
2022-11-21T21:26:58.940Z,8.23
2022-11-21T21:29:27.240Z,10.25
2022-11-21T21:31:55.517Z,11.20
2022-11-21T21:34:24.369Z,11.00
2022-11-21T21:36:52.499Z,9.77
2022-11-21T21:39:20.515Z,9.63
2022-11-21T21:41:48.474Z,8.85
2022-11-21T21:44:17.820Z,9.50
2022-11-21T21:46:46.011Z,8.02
2022-11-21T21:49:14.232Z,8.00
2022-11-21T21:51:42.140Z,9.60
2022-11-21T21:54:17.412Z,8.80
2022-11-21T21:56:46.980Z,9.93
2022-11-21T21:59:15.621Z,9.15
2022-11-21T22:01:44.988Z,10.32
2022-11-21T22:04:13.529Z,10.52
2022-11-21T22:06:41.623Z,11.52
2022-11-21T22:09:09.557Z,9.25
2022-11-21T22:11:39.568Z,9.50
2022-11-21T22:14:11.170Z,8.85
2022-11-21T22:16:39.255Z,8.25
2022-11-21T22:19:08.753Z,8.20
2022-11-21T22:21:38.239Z,8.15
2022-11-21T22:24:26.921Z,7.60
2022-11-21T22:26:55.163Z,7.78
2022-11-21T22:29:23.327Z,7.03
2022-11-21T22:31:51.865Z,7.20
2022-11-21T22:34:21.548Z,7.22
2022-11-21T22:36:49.387Z,6.95
2022-11-21T22:39:17.935Z,7.07
2022-11-21T22:41:46.052Z,7.18
2022-11-21T22:44:14.141Z,6.18
2022-11-21T22:46:42.211Z,6.70
2022-11-21T22:49:10.164Z,6.72
2022-11-21T22:51:39.523Z,7.20
2022-11-21T22:54:07.417Z,7.65
2022-11-21T22:56:35.474Z,6.43
2022-11-21T22:59:03.405Z,5.95
2022-11-21T23:01:34.288Z,7.18
2022-11-21T23:06:35.538Z,6.68
2022-11-21T23:09:03.554Z,6.30
2022-11-21T23:11:39.257Z,7.30
2022-11-21T23:14:09.942Z,6.40
2022-11-21T23:16:37.925Z,6.55
2022-11-21T23:19:06.126Z,6.60
2022-11-21T23:21:35.565Z,6.63
2022-11-21T23:24:03.405Z,7.07
2022-11-21T23:26:33.075Z,7.68
2022-11-21T23:29:06.726Z,6.88
2022-11-21T23:31:36.298Z,7.68
2022-11-21T23:34:04.434Z,7.03
2022-11-21T23:36:32.620Z,6.78
2022-11-21T23:39:02.199Z,7.43
2022-11-21T23:41:30.023Z,7.28
2022-11-21T23:44:03.888Z,7.63
2022-11-21T23:46:31.850Z,7.80
2022-11-21T23:48:59.795Z,7.93
2022-11-21T23:51:27.820Z,8.50
2022-11-21T23:53:55.764Z,9.13
2022-11-21T23:56:25.117Z,9.40
2022-11-21T23:58:53.018Z,8.25
